Time;durP1;ratioP1;P1;durP2;ratioP2;P2;SDS_P1;SDS_P2;PMS_P1;PMS_P2;Temp;Humidity;BMP_temperature;BMP_pressure;BME280_temperature;BME280_humidity;BME280_pressure;Samples;Min_cycle;Max_cycle;Signal;HPM_P1;HPM_P2
2021/06/18 00:02:13;;;;;;;4.30;3.88;;;;;;;25.20;49.82;101551.31;4993870;28;20061;-84
2021/06/18 00:04:39;;;;;;;4.30;3.90;;;;;;;25.20;49.86;101551.31;4977268;28;20034;-83
2021/06/18 00:07:05;;;;;;;4.18;3.80;;;;;;;25.20;49.59;101535.50;4960282;28;20481;-83
2021/06/18 00:09:30;;;;;;;4.57;4.18;;;;;;;25.20;49.46;101524.97;4976470;28;20504;-85
2021/06/18 00:11:55;;;;;;;5.35;4.03;;;;;;;25.20;49.59;101525.81;4976196;28;20053;-85
2021/06/18 00:14:21;;;;;;;4.20;3.80;;;;;;;25.22;49.62;101526.63;4976694;28;20058;-84
2021/06/18 00:16:46;;;;;;;4.05;3.65;;;;;;;25.21;49.81;101530.16;4993634;28;20419;-83
2021/06/18 00:19:12;;;;;;;4.15;3.75;;;;;;;25.21;49.62;101517.00;4976820;28;20050;-83
2021/06/18 00:21:37;;;;;;;3.83;3.42;;;;;;;25.20;49.71;101510.00;4976856;28;20026;-83
2021/06/18 00:24:03;;;;;;;4.45;4.05;;;;;;;25.22;49.83;101515.25;4993708;28;20038;-83
2021/06/18 00:26:28;;;;;;;5.00;3.88;;;;;;;25.20;49.92;101517.06;4976099;28;20477;-84
2021/06/18 00:28:53;;;;;;;4.22;3.83;;;;;;;25.19;49.46;101537.25;4976105;28;20038;-85
2021/06/18 00:31:19;;;;;;;4.38;3.97;;;;;;;25.18;49.80;101535.50;4993718;28;20401;-85
2021/06/18 00:33:44;;;;;;;4.30;3.90;;;;;;;25.19;49.67;101531.97;4992723;28;20027;-84
2021/06/18 00:36:12;;;;;;;4.10;3.70;;;;;;;25.18;49.82;101524.13;4976181;28;20045;-84
2021/06/18 00:38:38;;;;;;;4.00;3.70;;;;;;;25.18;49.51;101511.78;4992293;28;20177;-84
2021/06/18 00:41:04;;;;;;;4.50;3.83;;;;;;;25.22;49.64;101509.97;4976032;28;20089;-84
2021/06/18 00:43:30;;;;;;;4.25;3.85;;;;;;;25.17;49.90;101499.56;4992135;28;20023;-84
2021/06/18 00:45:55;;;;;;;4.28;3.88;;;;;;;25.18;49.64;101488.09;4995834;28;20153;-84
2021/06/18 00:48:22;;;;;;;4.32;3.92;;;;;;;25.17;49.53;101481.13;4979795;28;20473;-84
2021/06/18 00:50:48;;;;;;;4.35;3.95;;;;;;;25.18;49.71;101479.34;4979826;28;20070;-84
2021/06/18 00:53:14;;;;;;;4.43;4.00;;;;;;;25.17;49.74;101477.59;4995846;28;20126;-84
2021/06/18 00:55:40;;;;;;;6.00;4.00;;;;;;;25.15;49.80;101472.41;4995722;28;20496;-83
2021/06/18 00:58:07;;;;;;;4.20;3.80;;;;;;;25.16;49.88;101478.53;4997336;28;20026;-84
2021/06/18 01:00:32;;;;;;;4.25;3.85;;;;;;;25.13;49.83;101479.47;4997515;28;20035;-83
2021/06/18 01:02:58;;;;;;;4.43;3.92;;;;;;;25.12;50.01;101476.88;4996007;28;20085;-83
2021/06/18 01:05:24;;;;;;;6.68;3.75;;;;;;;25.11;49.83;101478.66;4963296;28;20544;-84
2021/06/18 01:08:01;;;;;;;4.03;3.63;;;;;;;25.12;50.11;101476.88;4979500;28;20030;-83
2021/06/18 01:11:04;;;;;;;4.20;3.60;;;;;;;25.16;49.96;101463.56;4995451;28;20022;-84
2021/06/18 01:13:35;;;;;;;6.22;3.90;;;;;;;25.15;50.06;101469.75;4995528;28;20038;-81
2021/06/18 01:16:30;;;;;;;4.32;3.67;;;;;;;25.16;50.05;101466.22;4995385;28;20049;-81
2021/06/18 01:19:10;;;;;;;4.07;3.75;;;;;;;25.13;49.98;101475.97;4992448;28;20039;-82
2021/06/18 01:21:41;;;;;;;3.97;3.58;;;;;;;25.17;50.08;101472.34;4996694;28;20030;-82
2021/06/18 01:24:25;;;;;;;3.83;3.42;;;;;;;25.18;50.02;101481.97;4995405;28;20038;-81
2021/06/18 01:27:02;;;;;;;3.50;3.20;;;;;;;25.22;49.86;101491.53;4995229;28;20088;-81
2021/06/18 01:29:51;;;;;;;4.15;3.45;;;;;;;25.22;49.75;101500.28;4994934;28;20025;-81
2021/06/18 01:32:28;;;;;;;3.63;3.30;;;;;;;25.23;50.27;101501.16;4995130;28;20030;-81
2021/06/18 01:34:55;;;;;;;3.50;3.20;;;;;;;25.23;49.93;101485.34;4995088;28;20513;-84
2021/06/18 01:37:27;;;;;;;4.45;3.70;;;;;;;25.16;50.11;101474.09;5000740;28;20113;-81
2021/06/18 01:39:56;;;;;;;4.20;3.80;;;;;;;25.17;50.05;101460.03;5004817;28;20037;-84
2021/06/18 01:42:23;;;;;;;4.03;3.70;;;;;;;25.20;50.12;101459.13;4995056;28;20034;-82
2021/06/18 01:44:50;;;;;;;4.13;3.50;;;;;;;25.16;50.32;101447.78;4995400;28;20022;-81
2021/06/18 01:47:16;;;;;;;5.13;3.78;;;;;;;25.17;50.30;101478.47;4979374;28;20503;-81
2021/06/18 01:49:43;;;;;;;4.22;3.72;;;;;;;25.22;50.06;101496.81;4981701;28;20134;-82
2021/06/18 01:52:10;;;;;;;3.33;3.03;;;;;;;25.23;50.42;101530.97;5007789;28;20046;-82
2021/06/18 01:54:37;;;;;;;4.32;3.00;;;;;;;25.25;50.31;101537.06;5005858;28;20049;-82
2021/06/18 01:57:05;;;;;;;3.42;2.80;;;;;;;25.25;50.03;101504.59;4996300;28;20019;-82
2021/06/18 01:59:35;;;;;;;3.78;3.22;;;;;;;25.25;50.21;101486.16;4997591;28;20026;-82
2021/06/18 02:02:05;;;;;;;4.35;3.70;;;;;;;25.20;50.23;101488.09;4994902;28;20031;-83
2021/06/18 02:04:32;;;;;;;4.30;3.90;;;;;;;25.21;50.68;101495.91;4996517;28;20026;-82
2021/06/18 02:06:58;;;;;;;4.10;3.70;;;;;;;25.20;50.70;101488.94;4994591;28;20100;-83
2021/06/18 02:09:25;;;;;;;5.78;3.80;;;;;;;25.20;50.94;101482.81;4978807;28;20481;-82
2021/06/18 02:11:51;;;;;;;3.88;3.50;;;;;;;25.21;50.62;101474.84;4978308;28;20481;-81
2021/06/18 02:14:19;;;;;;;3.90;3.53;;;;;;;25.20;50.89;101453.84;4995734;28;20026;-84
2021/06/18 02:16:58;;;;;;;4.15;3.83;;;;;;;25.20;50.61;101445.94;4994183;28;20137;-84
2021/06/18 02:19:24;;;;;;;3.97;3.67;;;;;;;25.22;50.72;101446.75;4994251;28;20226;-82
2021/06/18 02:21:55;;;;;;;4.97;4.03;;;;;;;25.16;51.11;101445.13;4994366;28;20030;-81
2021/06/18 02:24:23;;;;;;;4.50;4.10;;;;;;;25.18;50.84;101451.22;4978529;28;20030;-82
2021/06/18 02:26:49;;;;;;;4.40;4.00;;;;;;;25.17;50.74;101465.31;4995350;28;20076;-84
2021/06/18 02:29:15;;;;;;;4.55;4.00;;;;;;;25.21;50.68;101458.19;4996201;28;20511;-84
2021/06/18 02:31:43;;;;;;;3.85;3.50;;;;;;;25.21;50.88;101466.09;4994635;28;20026;-84
2021/06/18 02:34:09;;;;;;;3.70;3.40;;;;;;;25.24;50.75;101473.91;4994022;28;20050;-82
2021/06/18 02:36:37;;;;;;;3.60;3.30;;;;;;;25.24;50.48;101489.72;4978016;28;20073;-84
2021/06/18 02:39:05;;;;;;;3.70;3.40;;;;;;;25.25;50.78;101488.78;4995175;28;20040;-82
2021/06/18 02:41:30;;;;;;;3.58;3.28;;;;;;;25.24;50.69;101498.47;4995070;28;20105;-84
2021/06/18 02:43:56;;;;;;;4.78;3.55;;;;;;;25.24;50.68;101493.22;4961618;28;20061;-83
2021/06/18 02:46:34;;;;;;;4.28;3.33;;;;;;;25.25;50.83;101515.13;4977604;28;20455;-84
2021/06/18 02:49:01;;;;;;;3.83;3.42;;;;;;;25.26;50.96;101519.50;4994800;28;20030;-84
2021/06/18 02:51:35;;;;;;;4.55;4.15;;;;;;;25.27;51.07;101533.53;4993854;28;20030;-84
2021/06/18 02:54:09;;;;;;;4.53;3.95;;;;;;;25.27;51.19;101552.84;4993666;28;20022;-83
2021/06/18 02:57:24;;;;;;;4.05;3.47;;;;;;;25.22;51.11;101579.31;4994691;28;20074;-83
2021/06/18 03:00:10;;;;;;;4.63;4.22;;;;;;;25.25;50.87;101610.81;4991420;28;20035;-83
2021/06/18 03:02:43;;;;;;;4.55;4.15;;;;;;;25.26;51.35;101609.06;4993240;28;20030;-82
2021/06/18 03:05:12;;;;;;;4.80;4.32;;;;;;;25.23;50.97;101588.94;4993255;28;20117;-82
2021/06/18 03:07:42;;;;;;;5.20;4.10;;;;;;;25.24;51.24;101566.09;4993074;28;20038;-83
2021/06/18 03:10:09;;;;;;;4.72;4.20;;;;;;;25.23;51.67;101557.31;4992686;28;20129;-83
2021/06/18 03:12:39;;;;;;;4.85;4.15;;;;;;;25.22;51.53;101550.34;4993404;28;20026;-84
2021/06/18 03:15:08;;;;;;;4.93;4.30;;;;;;;25.21;51.51;101538.06;4993453;28;20034;-84
2021/06/18 03:17:38;;;;;;;5.28;4.28;;;;;;;25.21;51.39;101538.06;4994649;28;20037;-84
2021/06/18 03:20:09;;;;;;;5.82;4.68;;;;;;;25.23;51.55;101532.75;4994391;28;20022;-88
2021/06/18 03:22:37;;;;;;;5.38;4.20;;;;;;;25.30;51.31;101531.66;4994707;28;20030;-88
2021/06/18 03:25:04;;;;;;;7.97;4.28;;;;;;;25.28;51.19;101520.28;4994555;28;20026;-86
2021/06/18 03:27:32;;;;;;;6.95;4.72;;;;;;;25.27;51.42;101508.06;4994568;28;20100;-88
2021/06/18 03:29:58;;;;;;;6.18;4.47;;;;;;;25.25;51.51;101502.81;4993817;28;20496;-88
2021/06/18 03:32:25;;;;;;;5.20;4.65;;;;;;;25.27;51.59;101510.69;4993273;28;20030;-86
2021/06/18 03:34:51;;;;;;;5.93;4.57;;;;;;;25.25;51.67;101515.13;4977016;28;20033;-87
2021/06/18 03:37:18;;;;;;;5.68;4.82;;;;;;;25.27;51.78;101517.72;4993373;28;20032;-86
2021/06/18 03:39:43;;;;;;;8.07;4.90;;;;;;;25.28;51.52;101509.75;4977030;28;20088;-85
2021/06/18 03:42:10;;;;;;;5.32;4.75;;;;;;;25.23;52.16;101502.00;4992866;28;20026;-86
2021/06/18 03:44:36;;;;;;;6.10;4.93;;;;;;;25.23;52.08;101504.63;4994364;28;20029;-86
2021/06/18 03:47:04;;;;;;;7.47;5.10;;;;;;;25.22;51.77;101515.25;4995805;28;20428;-86
2021/06/18 03:49:30;;;;;;;5.57;4.03;;;;;;;25.24;51.75;101516.06;4994690;28;20052;-85
2021/06/18 03:51:55;;;;;;;6.90;4.32;;;;;;;25.27;51.50;101513.31;4993601;28;20018;-86
2021/06/18 03:54:22;;;;;;;5.03;4.53;;;;;;;25.24;51.96;101508.16;4977032;28;20034;-86
2021/06/18 03:56:49;;;;;;;6.20;5.13;;;;;;;25.22;52.05;101513.47;4981867;28;20153;-86
2021/06/18 03:59:17;;;;;;;5.47;4.57;;;;;;;25.27;52.07;101520.38;4978608;28;20062;-86
2021/06/18 04:01:45;;;;;;;6.47;4.90;;;;;;;25.23;51.99;101523.06;4995601;28;20024;-86
2021/06/18 04:04:11;;;;;;;5.78;4.72;;;;;;;25.27;51.58;101542.28;4994742;28;20030;-87
2021/06/18 04:06:37;;;;;;;5.75;4.68;;;;;;;25.31;51.97;101574.69;4993584;28;20489;-86
2021/06/18 04:09:04;;;;;;;7.78;5.05;;;;;;;25.26;51.99;101582.72;4976898;28;20030;-86
2021/06/18 04:11:30;;;;;;;6.30;4.70;;;;;;;25.25;52.21;101581.84;4994484;28;20410;-86
2021/06/18 04:13:56;;;;;;;5.85;5.07;;;;;;;25.27;51.81;101573.06;4999107;28;20033;-87
2021/06/18 04:16:22;;;;;;;5.28;4.43;;;;;;;25.27;51.86;101576.53;5013151;28;20026;-87
2021/06/18 04:18:48;;;;;;;5.30;4.53;;;;;;;25.25;52.10;101581.00;5003923;28;20022;-86
2021/06/18 04:21:19;;;;;;;6.30;4.47;;;;;;;25.26;51.98;101574.84;4998742;28;20026;-85
2021/06/18 04:23:45;;;;;;;5.57;4.45;;;;;;;25.27;51.86;101575.69;4998257;28;20034;-86
2021/06/18 04:26:10;;;;;;;5.57;5.00;;;;;;;25.25;52.00;101584.47;4998223;28;20037;-86
2021/06/18 04:28:36;;;;;;;4.75;3.80;;;;;;;25.30;51.62;101575.56;4996405;28;20041;-86
2021/06/18 04:31:04;;;;;;;5.40;4.90;;;;;;;25.28;51.93;101569.50;4996701;28;20464;-86
2021/06/18 04:33:30;;;;;;;5.90;4.53;;;;;;;25.27;51.54;101566.00;4996764;28;20113;-85
2021/06/18 04:35:56;;;;;;;5.45;4.95;;;;;;;25.25;51.74;101554.66;4996537;28;20090;-85
2021/06/18 04:38:21;;;;;;;4.43;4.00;;;;;;;25.27;51.67;101559.88;4997074;28;20026;-85
2021/06/18 04:40:47;;;;;;;7.20;5.35;;;;;;;25.28;51.20;101558.97;4985836;28;20089;-85
2021/06/18 04:43:12;;;;;;;7.60;5.22;;;;;;;25.27;51.36;101551.97;4997406;28;20034;-85
2021/06/18 04:45:38;;;;;;;6.93;6.22;;;;;;;25.28;51.61;101551.91;4997457;28;20034;-85
2021/06/18 04:48:04;;;;;;;5.85;5.35;;;;;;;25.29;51.52;101552.78;4980777;28;20442;-85
2021/06/18 04:50:29;;;;;;;6.53;5.63;;;;;;;25.29;51.64;101550.16;4996310;28;20052;-85
2021/06/18 04:52:55;;;;;;;9.30;7.88;;;;;;;25.29;51.71;101537.84;4996528;28;20109;-85
2021/06/18 04:55:21;;;;;;;6.95;5.78;;;;;;;25.29;51.22;101518.53;4997009;28;20034;-85
2021/06/18 04:57:48;;;;;;;7.63;6.10;;;;;;;25.29;51.55;101518.53;4996724;28;20022;-87
2021/06/18 05:00:15;;;;;;;7.22;5.55;;;;;;;25.32;51.45;101507.91;4996339;28;20065;-86
2021/06/18 05:02:41;;;;;;;7.78;6.88;;;;;;;25.31;51.22;101501.78;4979932;28;20033;-86
2021/06/18 05:05:07;;;;;;;5.70;5.20;;;;;;;25.31;51.40;101485.97;4980156;28;20030;-86
2021/06/18 05:07:33;;;;;;;7.93;7.05;;;;;;;25.28;51.57;101478.16;4997521;28;20036;-86
2021/06/18 05:09:59;;;;;;;16.75;8.48;;;;;;;25.29;51.68;101468.50;4996689;28;20026;-86
2021/06/18 05:12:25;;;;;;;10.55;8.45;;;;;;;25.24;52.15;101458.09;4996025;28;20027;-85
2021/06/18 05:14:51;;;;;;;14.25;8.82;;;;;;;25.27;52.63;101455.38;4996408;28;20022;-85
2021/06/18 05:17:16;;;;;;;16.35;8.27;;;;;;;25.36;52.14;101448.94;4997190;28;20030;-86
2021/06/18 05:19:42;;;;;;;15.50;7.90;;;;;;;25.39;51.70;101446.19;5001092;28;20026;-91
2021/06/18 05:22:08;;;;;;;25.42;10.93;;;;;;;25.40;51.72;101447.94;5005827;28;20034;-92
2021/06/18 05:24:33;;;;;;;27.25;11.27;;;;;;;25.41;51.86;101455.78;5007810;28;20049;-92
2021/06/18 05:26:59;;;;;;;39.58;13.48;;;;;;;25.45;52.01;101460.03;5012475;28;20041;-92
2021/06/18 05:29:25;;;;;;;33.83;12.02;;;;;;;25.45;51.99;101464.44;5005530;28;20022;-92
2021/06/18 05:31:50;;;;;;;32.30;10.85;;;;;;;25.53;52.33;101469.47;5005382;28;20117;-92
2021/06/18 05:34:16;;;;;;;27.17;10.60;;;;;;;25.50;52.10;101461.66;5012681;28;20034;-93
2021/06/18 05:36:46;;;;;;;28.20;11.15;;;;;;;25.47;52.40;101462.63;5014483;28;20034;-92
2021/06/18 05:39:13;;;;;;;26.73;10.98;;;;;;;25.45;52.41;101459.16;4999123;28;20023;-91
2021/06/18 05:45:07;;;;;;;30.00;10.45;;;;;;;25.41;51.88;101457.53;5010239;28;20060;-89
2021/06/18 05:47:33;;;;;;;24.10;9.83;;;;;;;25.41;51.94;101457.53;5012824;28;20026;-90
2021/06/18 05:49:58;;;;;;;22.90;10.55;;;;;;;25.38;51.99;101453.25;5011258;28;20051;-92
2021/06/18 05:52:24;;;;;;;19.55;9.43;;;;;;;25.42;52.14;101465.41;5010808;28;20057;-90
2021/06/18 05:54:49;;;;;;;24.63;9.35;;;;;;;25.43;51.67;101464.50;5005569;28;20022;-91
2021/06/18 05:57:15;;;;;;;19.90;9.02;;;;;;;25.43;51.48;101468.91;5006804;28;20065;-93
2021/06/18 05:59:41;;;;;;;19.52;9.43;;;;;;;25.43;51.74;101469.78;5007808;28;20100;-91
2021/06/18 06:02:06;;;;;;;16.45;8.63;;;;;;;25.43;51.93;101466.25;4992676;28;20053;-92
2021/06/18 06:04:32;;;;;;;18.30;8.45;;;;;;;25.49;51.54;101471.34;5010463;28;20551;-89
2021/06/18 06:06:57;;;;;;;16.27;8.68;;;;;;;25.50;51.68;101469.56;4993252;28;20066;-91
2021/06/18 06:09:23;;;;;;;16.52;8.50;;;;;;;25.47;51.65;101467.88;4993120;28;20061;-91
2021/06/18 06:11:48;;;;;;;18.75;8.25;;;;;;;25.48;51.62;101469.63;5008203;28;20114;-91
2021/06/18 06:14:17;;;;;;;16.73;8.05;;;;;;;25.47;51.35;101464.41;5007821;28;20409;-94
2021/06/18 06:16:45;;;;;;;14.57;8.15;;;;;;;25.45;51.54;101464.44;5006481;28;20181;-94
2021/06/18 06:19:10;;;;;;;12.23;7.25;;;;;;;25.48;51.59;101463.47;5002698;28;20547;-91
2021/06/18 06:21:43;;;;;;;15.63;8.15;;;;;;;25.48;51.40;101451.19;5003542;28;20034;-88
2021/06/18 06:24:10;;;;;;;13.60;8.40;;;;;;;25.47;51.77;101457.34;5009660;28;20102;-90
2021/06/18 06:26:35;;;;;;;14.25;7.25;;;;;;;25.48;51.38;101456.44;5017996;28;20045;-89
2021/06/18 06:29:01;;;;;;;13.32;7.60;;;;;;;25.49;51.46;101446.75;5006978;28;20031;-94
2021/06/18 06:31:27;;;;;;;14.55;8.65;;;;;;;25.48;51.70;101440.63;5006214;28;20030;-94
2021/06/18 06:33:55;;;;;;;15.45;10.98;;;;;;;25.33;53.12;101431.47;4973579;28;20105;-94
2021/06/18 06:36:20;;;;;;;18.90;15.85;;;;;;;25.07;54.09;101423.50;4992822;28;20083;-90
2021/06/18 06:38:49;;;;;;;19.75;16.80;;;;;;;24.91;55.22;101428.38;5009408;28;20018;-91
2021/06/18 06:41:14;;;;;;;18.85;16.85;;;;;;;24.83;55.76;101439.16;4999994;28;20030;-90
2021/06/18 06:43:40;;;;;;;20.40;17.08;;;;;;;24.77;55.67;101458.63;4998098;28;20038;-91
2021/06/18 06:46:05;;;;;;;19.33;16.52;;;;;;;24.78;55.88;101470.00;4986637;28;20038;-92
2021/06/18 06:48:31;;;;;;;19.98;16.35;;;;;;;24.82;55.80;101477.78;5003166;28;20509;-91
2021/06/18 06:50:57;;;;;;;18.85;15.35;;;;;;;24.90;55.51;101474.91;4987206;28;20073;-90
2021/06/18 06:53:23;;;;;;;16.80;15.05;;;;;;;24.85;55.81;101471.56;4989490;28;20061;-91
2021/06/18 06:55:48;;;;;;;22.27;15.52;;;;;;;24.84;55.77;101469.81;5009675;28;20046;-88
2021/06/18 06:58:13;;;;;;;25.95;16.67;;;;;;;24.81;56.15;101469.94;5008253;28;20030;-92
2021/06/18 07:00:40;;;;;;;18.13;15.48;;;;;;;24.81;56.22;101468.16;4983415;28;20097;-91
2021/06/18 07:03:06;;;;;;;18.63;15.50;;;;;;;24.83;56.06;101457.59;4987230;28;20038;-91
2021/06/18 07:05:31;;;;;;;21.65;16.40;;;;;;;24.74;57.14;101452.59;5006369;28;20036;-90
2021/06/18 07:08:12;;;;;;;21.98;16.40;;;;;;;24.80;56.78;101445.38;5010128;28;20029;-92
2021/06/18 07:10:38;;;;;;;23.45;17.15;;;;;;;24.75;56.76;101434.13;5007043;28;20143;-91
2021/06/18 07:13:03;;;;;;;21.98;16.95;;;;;;;24.73;57.12;101435.94;5006053;28;20057;-92
2021/06/18 07:15:28;;;;;;;21.77;16.65;;;;;;;24.81;57.21;101438.34;4990421;28;20040;-92
2021/06/18 07:18:10;;;;;;;19.25;17.02;;;;;;;24.86;56.82;101440.84;5005178;28;20626;-92
2021/06/18 07:20:36;;;;;;;20.23;16.25;;;;;;;24.82;57.12;101442.69;5027241;22;20027;-92
2021/06/18 07:23:01;;;;;;;17.75;15.68;;;;;;;24.84;57.42;101444.34;5000715;28;20093;-93
2021/06/18 07:25:27;;;;;;;18.95;15.18;;;;;;;24.92;57.12;101449.41;4998668;28;20027;-92
2021/06/18 07:27:52;;;;;;;18.02;14.68;;;;;;;24.91;57.28;101446.81;5003590;28;20031;-90
2021/06/18 07:30:18;;;;;;;16.25;14.48;;;;;;;24.82;57.43;101446.22;5003386;28;20457;-92
2021/06/18 07:32:47;;;;;;;19.45;15.50;;;;;;;24.76;57.74;101441.13;5004953;28;20022;-90
2021/06/18 07:35:12;;;;;;;20.15;15.05;;;;;;;24.80;57.47;101441.88;5005686;28;20459;-88
2021/06/18 07:37:39;;;;;;;16.67;14.55;;;;;;;24.81;57.61;101448.88;5004152;28;20023;-90
2021/06/18 07:40:05;;;;;;;16.75;14.27;;;;;;;24.81;57.53;101447.09;5001454;28;20034;-90
2021/06/18 07:42:31;;;;;;;17.67;13.77;;;;;;;24.79;57.58;101446.28;5001715;28;20029;-90
2021/06/18 07:44:56;;;;;;;16.50;13.55;;;;;;;24.87;57.07;101447.81;5005708;28;20022;-91
2021/06/18 07:47:23;;;;;;;13.88;12.48;;;;;;;24.86;57.50;101448.72;5006022;28;20032;-92
2021/06/18 07:49:48;;;;;;;13.20;11.80;;;;;;;24.88;56.74;101442.50;5007200;28;20023;-87
2021/06/18 07:52:14;;;;;;;14.30;12.48;;;;;;;24.82;57.09;101448.84;5005889;28;20444;-90
2021/06/18 07:54:40;;;;;;;13.77;12.23;;;;;;;24.84;56.84;101459.28;5003919;28;20022;-92
2021/06/18 07:57:05;;;;;;;16.08;12.30;;;;;;;24.77;57.38;101457.78;4988873;28;20037;-90
2021/06/18 07:59:31;;;;;;;15.35;12.98;;;;;;;24.73;57.48;101462.25;4988553;28;20030;-92
2021/06/18 08:01:57;;;;;;;12.85;11.50;;;;;;;24.68;57.26;101458.06;4988207;28;20030;-88
2021/06/18 08:04:22;;;;;;;16.70;12.25;;;;;;;24.71;57.27;101461.44;4988145;28;20027;-90
2021/06/18 08:06:48;;;;;;;12.77;11.13;;;;;;;24.71;57.45;101453.53;5003300;28;20034;-92
2021/06/18 08:09:13;;;;;;;14.82;10.90;;;;;;;24.72;57.36;101451.78;5004833;28;20058;-91
2021/06/18 08:11:38;;;;;;;15.95;11.15;;;;;;;24.68;57.54;101451.00;5004577;28;20069;-88
2021/06/18 08:14:04;;;;;;;12.70;10.57;;;;;;;24.70;57.23;101449.19;5005487;28;20018;-92
2021/06/18 08:16:30;;;;;;;12.25;10.52;;;;;;;24.69;57.15;101439.56;5003825;28;20019;-89
2021/06/18 08:18:55;;;;;;;13.73;9.90;;;;;;;24.72;56.97;101443.91;4988237;28;20027;-88
2021/06/18 08:21:21;;;;;;;13.07;10.20;;;;;;;24.74;56.57;101445.56;4985950;28;20141;-88
2021/06/18 08:23:46;;;;;;;12.88;10.73;;;;;;;24.80;56.69;101445.38;4967768;28;20077;-90
2021/06/18 08:26:12;;;;;;;11.48;10.25;;;;;;;24.75;56.45;101444.66;5000765;28;20038;-87
2021/06/18 08:28:37;;;;;;;11.73;9.77;;;;;;;24.81;56.52;101444.47;4997161;28;20061;-92
2021/06/18 08:31:04;;;;;;;11.38;9.63;;;;;;;24.93;56.45;101445.00;4999236;28;20027;-90
2021/06/18 08:33:33;;;;;;;13.15;10.30;;;;;;;24.94;56.53;101441.47;4999775;28;20034;-93
2021/06/18 08:35:59;;;;;;;12.68;11.25;;;;;;;24.97;56.46;101444.00;5000706;28;20246;-91
2021/06/18 08:38:25;;;;;;;12.18;10.73;;;;;;;24.88;56.67;101444.28;5000663;28;20066;-90
2021/06/18 08:40:50;;;;;;;12.30;10.25;;;;;;;24.88;56.63;101436.38;5001330;28;20027;-92
2021/06/18 08:43:16;;;;;;;12.38;10.70;;;;;;;24.90;56.62;101434.56;5006642;28;20022;-87
2021/06/18 08:45:41;;;;;;;11.30;10.18;;;;;;;24.95;56.25;101425.59;4989349;28;20129;-86
2021/06/18 08:48:07;;;;;;;12.05;10.18;;;;;;;25.12;55.93;101425.06;4990969;28;20041;-91
2021/06/18 08:50:33;;;;;;;11.13;9.90;;;;;;;25.53;54.66;101427.31;5011508;28;20073;-89
2021/06/18 08:53:01;;;;;;;11.40;9.98;;;;;;;25.82;53.79;101416.59;5008681;28;20027;-92
2021/06/18 08:55:29;;;;;;;12.45;9.95;;;;;;;25.77;53.97;101409.78;5004540;28;20569;-93
2021/06/18 08:58:01;;;;;;;14.25;10.23;;;;;;;25.81;53.79;101416.69;5005116;28;20066;-93
2021/06/18 09:00:27;;;;;;;11.75;10.40;;;;;;;25.90;53.48;101407.63;5005531;28;20516;-93
2021/06/18 09:02:55;;;;;;;11.60;10.32;;;;;;;26.12;53.07;101407.69;4986183;28;20042;-90
2021/06/18 09:05:21;;;;;;;13.20;11.15;;;;;;;26.31;52.20;101395.53;5000247;28;20566;-93
2021/06/18 09:07:46;;;;;;;13.27;10.73;;;;;;;26.47;52.46;101399.31;4985023;28;20053;-93
2021/06/18 09:10:39;;;;;;;13.35;11.95;;;;;;;26.50;52.00;101395.72;4999961;28;20030;-92
2021/06/18 09:13:11;;;;;;;14.95;12.48;;;;;;;26.21;53.02;101402.06;4999812;28;20038;-88
2021/06/18 09:15:38;;;;;;;14.40;12.18;;;;;;;26.48;51.99;101393.13;5000365;28;20030;-92
2021/06/18 09:18:31;;;;;;;14.00;12.15;;;;;;;26.37;52.56;101395.31;5001612;28;20031;-93
2021/06/18 09:21:03;;;;;;;15.18;12.98;;;;;;;26.26;53.20;101402.75;4994282;28;20069;-91
2021/06/18 09:23:33;;;;;;;14.05;11.77;;;;;;;26.36;52.76;101393.59;5000123;28;20046;-90
2021/06/18 09:26:18;;;;;;;14.90;11.95;;;;;;;26.41;52.50;101393.41;5005337;28;20396;-93
2021/06/18 09:28:59;;;;;;;14.50;11.63;;;;;;;26.22;52.73;101398.53;5001975;28;20114;-89
2021/06/18 09:31:28;;;;;;;14.18;11.95;;;;;;;26.02;53.14;101394.84;4999615;28;20030;-90
2021/06/18 09:33:53;;;;;;;15.07;11.73;;;;;;;26.11;52.66;101392.78;4999195;28;20050;-90
2021/06/18 09:36:19;;;;;;;11.25;10.10;;;;;;;26.00;52.80;101396.69;5000717;28;20065;-92
2021/06/18 09:38:50;;;;;;;13.95;10.85;;;;;;;25.95;53.15;101393.31;4966369;28;20046;-92
2021/06/18 09:41:29;;;;;;;11.35;9.65;;;;;;;25.90;53.35;101392.66;4999004;28;20054;-93
2021/06/18 09:44:23;;;;;;;14.25;9.80;;;;;;;25.90;53.39;101397.06;4998851;28;20064;-91
2021/06/18 09:46:53;;;;;;;10.80;9.45;;;;;;;25.92;53.09;101393.44;4997977;28;20046;-92
2021/06/18 09:49:31;;;;;;;13.73;8.73;;;;;;;25.97;53.22;101390.66;4999691;28;20023;-91
2021/06/18 09:52:01;;;;;;;15.02;8.38;;;;;;;25.58;54.07;101385.84;5001678;28;20026;-93
2021/06/18 09:54:31;;;;;;;8.73;7.70;;;;;;;25.38;54.94;101384.75;5002097;28;20049;-90
2021/06/18 09:57:14;;;;;;;12.32;7.60;;;;;;;25.29;54.75;101387.69;5002324;28;20053;-93
2021/06/18 10:00:03;;;;;;;11.18;7.20;;;;;;;25.26;54.51;101382.53;5000676;28;20065;-89
2021/06/18 10:02:40;;;;;;;10.85;7.15;;;;;;;25.24;54.29;101382.56;5000499;28;20532;-90
2021/06/18 10:05:12;;;;;;;39.65;17.00;;;;;;;25.23;54.22;101372.94;5001797;28;20023;-93
2021/06/18 10:07:38;;;;;;;38.90;14.63;;;;;;;25.36;53.84;101376.03;5001542;28;20022;-93
2021/06/18 10:10:07;;;;;;;30.67;12.57;;;;;;;25.40;53.68;101371.53;5000160;28;20050;-91
2021/06/18 10:12:33;;;;;;;27.45;10.27;;;;;;;25.44;53.78;101370.50;5000799;28;20027;-91
2021/06/18 10:15:06;;;;;;;24.25;10.75;;;;;;;25.50;53.75;101386.13;5003491;28;20026;-91
2021/06/18 10:17:34;;;;;;;19.17;10.27;;;;;;;25.52;53.48;101370.22;5002124;28;20032;-94
2021/06/18 10:20:01;;;;;;;18.70;9.30;;;;;;;25.55;53.05;101365.72;5002756;28;20019;-90
2021/06/18 10:22:27;;;;;;;17.33;9.68;;;;;;;25.57;52.96;101369.16;5003872;28;20042;-94
2021/06/18 10:24:59;;;;;;;15.18;7.57;;;;;;;25.55;53.10;101373.63;5004656;28;20038;-91
2021/06/18 10:27:34;;;;;;;17.08;8.18;;;;;;;25.51;53.55;101366.75;5003921;28;20069;-90
2021/06/18 10:30:23;;;;;;;18.15;7.97;;;;;;;25.51;53.34;101364.09;5006502;28;20103;-91
2021/06/18 10:32:48;;;;;;;19.60;8.57;;;;;;;25.55;53.12;101365.72;5004206;28;20061;-94
2021/06/18 10:35:40;;;;;;;13.73;8.15;;;;;;;25.58;53.29;101360.34;5002415;28;20027;-93
2021/06/18 10:38:12;;;;;;;15.50;9.52;;;;;;;25.61;52.59;101362.88;5009068;28;20054;-92
2021/06/18 10:40:46;;;;;;;9.68;6.60;;;;;;;25.58;52.74;101357.69;5011469;28;20030;-91
2021/06/18 10:43:14;;;;;;;14.88;6.53;;;;;;;25.58;53.03;101356.84;4997238;28;20038;-86
2021/06/18 10:45:58;;;;;;;10.35;6.63;;;;;;;25.59;53.13;101364.72;4999755;28;20097;-86
2021/06/18 10:48:46;;;;;;;11.85;7.07;;;;;;;25.58;52.75;101355.06;4998544;28;20440;-86
2021/06/18 10:51:30;;;;;;;11.43;6.75;;;;;;;25.61;53.13;101348.84;4988079;28;20034;-87
2021/06/18 10:54:05;;;;;;;10.68;7.30;;;;;;;25.62;52.74;101342.66;4996468;28;20030;-86
2021/06/18 10:56:45;;;;;;;11.38;7.63;;;;;;;25.66;52.27;101336.34;4996836;28;20054;-86
2021/06/18 10:59:16;;;;;;;12.50;6.55;;;;;;;25.66;52.58;101329.31;4998152;28;20523;-85
2021/06/18 11:01:43;;;;;;;12.70;8.10;;;;;;;25.68;52.41;101325.78;4995932;28;20030;-86
2021/06/18 11:04:09;;;;;;;11.27;7.57;;;;;;;25.68;52.42;101317.84;4995339;28;20054;-86
2021/06/18 11:06:48;;;;;;;13.27;7.72;;;;;;;25.70;52.09;101321.31;4996797;28;20023;-85
2021/06/18 11:09:45;;;;;;;12.52;9.07;;;;;;;25.68;52.26;101307.31;4995829;28;20023;-85
2021/06/18 11:15:33;;;;;;;10.80;7.95;;;;;;;25.67;52.14;101327.53;5011916;28;20057;-86
2021/06/18 11:18:17;;;;;;;13.30;7.07;;;;;;;25.66;52.47;101317.91;5012402;28;20035;-84
2021/06/18 11:20:43;;;;;;;9.85;7.72;;;;;;;25.69;52.50;101316.94;5001972;28;20109;-85
2021/06/18 11:23:22;;;;;;;11.50;7.78;;;;;;;25.70;52.19;101323.94;4996236;28;20062;-85
2021/06/18 11:25:59;;;;;;;8.85;6.43;;;;;;;25.69;52.57;101314.28;5019190;22;20050;-84
2021/06/18 11:28:26;;;;;;;10.93;5.57;;;;;;;25.67;52.35;101314.34;4997513;28;20053;-84
2021/06/18 11:31:07;;;;;;;12.82;6.32;;;;;;;25.71;52.40;101318.59;4993440;28;20030;-85
2021/06/18 11:33:45;;;;;;;9.40;4.30;;;;;;;25.71;52.24;101312.47;5001424;28;20034;-88
2021/06/18 11:36:16;;;;;;;9.20;5.40;;;;;;;25.71;52.40;101323.88;5004607;28;20393;-85